Terminal Aerodrome Forecast
Issued by NWS Pueblo, CO

Home | Current Version | Previous Version | Text Only | Print | Product List | Glossary On
Versions: 1 2 3 4 5 6 7 8 9 10 11 12 13 14 15 16 17 18 19 20 21 22 23 24 25 26 27 28 29 30 31 32 33 34 35 36 37 38 39 40 41
000
FTUS45 KPUB 270026 AAB
TAFPUB
TAF AMD
KPUB 270026Z 2700/2724 15004KT P6SM -SN FEW030 OVC040
      TEMPO 2700/2702 2SM -SN BR OVC030
     FM270200 VRB03KT 6SM BR VCSH BKN030
     FM270700 VRB03KT P6SM SCT030 SCT100=

USA.gov is the U.S. government's official web portal to all federal, state and local government web resources and services.